BBC Congo — V2EL3 — position and weather

sailwx.info

Track history (hours):
 
Tides and Currents Weather Stations Pressure Air Temp Water Temp Dewpoint Dewpoint Depression Visibility Wind Speed Wind Dir Waves Ship Positions

BBC Congo

Last reported at 2017-Jun-26 03:30 UTC. Time now 2017-Jun-26 03:47 UTC.
Position N 51°21' W 009°57'.

Length 144 m; draft 6.6 m.

Type: Cargo ship. MMSI: 305466000.

Date/timePositionNaut miles runAvg speedWind from/ knotsBaromVisibWave heightAir tempDewpointWater temp
2017-Jun-26 03:30N 51°21' W 009°57'612.8
2017-Jun-26 03:00N 51°25' W 010°05'612.4
2017-Jun-26 02:30N 51°28' W 010°13'612.1
2017-Jun-26 02:00N 51°32' W 010°21'3812.0
2017-Jun-25 22:52N 52°08' W 010°41'513.9
2017-Jun-25 22:30N 52°11' W 010°35'713.8
2017-Jun-25 21:59N 52°15' W 010°25'913.7
2017-Jun-25 21:21N 52°20' W 010°14'613.5
2017-Jun-25 20:53N 52°24' W 010°05'  
2017-Jun-22 13:10N 52°30' W 009°52'314.5
2017-Jun-22 12:56N 52°28' W 009°57'714.6
2017-Jun-22 12:28N 52°24' W 010°06'714.4
2017-Jun-22 11:56N 52°20' W 010°16'814.6
2017-Jun-22 11:22N 52°15' W 010°27'5213.4
2017-Jun-22 07:30N 51°24' W 010°40'714.1
2017-Jun-22 07:00N 51°17' W 010°40'713.0
2017-Jun-22 06:28N 51°10' W 010°39'612.2
2017-Jun-22 06:00N 51°04' W 010°39'61214.1
2017-Jun-20 10:36N 40°53' W 009°50'214.6
2017-Jun-20 10:27N 40°51' W 009°50'4314.8
2017-Jun-20 07:34N 40°08' W 009°50'115.0
2017-Jun-20 07:30N 40°07' W 009°50'815.1
2017-Jun-20 07:00N 39°59' W 009°51'815.1
2017-Jun-20 06:30N 39°52' W 009°51'714.8
2017-Jun-20 06:00N 39°44' W 009°51'814.9
2017-Jun-20 05:30N 39°37' W 009°50'714.6
2017-Jun-20 05:00N 39°30' W 009°51'714.3
2017-Jun-20 04:30N 39°22' W 009°51'714.7
2017-Jun-20 04:00N 39°15' W 009°51'714.6
2017-Jun-20 03:30N 39°08' W 009°51'815.1
2017-Jun-20 03:00N 39°00' W 009°51'714.8
2017-Jun-20 02:30N 38°53' W 009°51'714.4
2017-Jun-20 02:00N 38°46' W 009°51'714.3
2017-Jun-20 01:30N 38°39' W 009°50'714.2
2017-Jun-20 01:00N 38°32' W 009°48'714.3
2017-Jun-20 00:30N 38°25' W 009°46'714.3
2017-Jun-20 00:00N 38°18' W 009°44'714.0
2017-Jun-19 23:31N 38°11' W 009°42'713.7
2017-Jun-19 23:01N 38°04' W 009°40'713.6
2017-Jun-19 22:30N 37°57' W 009°38'713.9
2017-Jun-19 22:01N 37°51' W 009°37'714.0
2017-Jun-19 21:30N 37°44' W 009°35'714.5
2017-Jun-19 21:00N 37°37' W 009°33'714.9
2017-Jun-19 20:31N 37°30' W 009°31'714.8
2017-Jun-19 20:01N 37°22' W 009°29'815.0
2017-Jun-19 19:30N 37°15' W 009°26'815.1
2017-Jun-19 19:00N 37°08' W 009°24'714.9
2017-Jun-19 18:30N 37°00' W 009°22'814.9
2017-Jun-19 18:00N 36°53' W 009°20'1314.6
2017-Jun-19 17:05N 36°44' W 009°07'214.0
2017-Jun-19 16:58N 36°44' W 009°05'613.9
2017-Jun-19 16:30N 36°42' W 008°58'814.8
2017-Jun-19 16:00N 36°39' W 008°49'1114.8
2017-Jun-19 15:17N 36°36' W 008°36'614.3
2017-Jun-19 14:53N 36°34' W 008°30'1314.3
2017-Jun-19 14:00N 36°30' W 008°15'714.1
2017-Jun-19 13:30N 36°27' W 008°06'714.2
2017-Jun-19 13:00N 36°25' W 007°58'715.0
2017-Jun-19 12:30N 36°23' W 007°49'815.3
2017-Jun-19 12:00N 36°20' W 007°40'1415.0
2017-Jun-19 11:04N 36°16' W 007°24'30914.6
2017-Jun-18 13:59N 36°26' W 001°01'715.2
2017-Jun-18 13:30N 36°28' W 000°52'815.2
2017-Jun-18 13:00N 36°29' W 000°43'815.1
2017-Jun-18 12:30N 36°30' W 000°33'2614.9
2017-Jun-18 10:45N 36°35' W 000°01'615.1
2017-Jun-18 10:22N 36°36' E 000°06'615.2
2017-Jun-18 09:59N 36°37' E 000°13'715.1
2017-Jun-18 09:30N 36°38' E 000°22'1014.8
2017-Jun-18 08:48N 36°40' E 000°35'414.7
2017-Jun-18 08:30N 36°40' E 000°40'714.9
2017-Jun-18 08:00N 36°41' E 000°49'815.0
2017-Jun-18 07:27N 36°43' E 000°59'815.1
2017-Jun-18 06:57N 36°45' E 001°09'715.1
2017-Jun-18 06:29N 36°46' E 001°17'1115.1
2017-Jun-18 05:47N 36°48' E 001°30'515.5
2017-Jun-18 05:29N 36°49' E 001°36'815.4
2017-Jun-18 05:00N 36°50' E 001°45'2715.2
2017-Jun-18 03:13N 36°56' E 002°18'315.3
2017-Jun-18 03:00N 36°56' E 002°22'815.3
2017-Jun-18 02:30N 36°57' E 002°32'815.3
2017-Jun-18 02:00N 36°58' E 002°41'815.2
2017-Jun-18 01:30N 36°59' E 002°51'1415.0
2017-Jun-18 00:33N 37°02' E 003°08'214.9
2017-Jun-18 00:23N 37°02' E 003°11'27214.5
2017-Jun-17 05:39N 37°35' E 008°50'314.4
2017-Jun-17 05:27N 37°36' E 008°54'1214.0
2017-Jun-17 04:36N 37°37' E 009°09'413.8
2017-Jun-17 04:19N 37°37' E 009°14'513.9
2017-Jun-17 04:00N 37°37' E 009°20'713.8
2017-Jun-17 03:27N 37°37' E 009°29'813.8
2017-Jun-17 02:53N 37°38' E 009°39'513.8
2017-Jun-17 02:29N 37°38' E 009°46'6413.6
2017-Jun-16 21:48N 37°29' E 011°06'414.5
2017-Jun-16 21:30N 37°27' E 011°11'5015.0
2017-Jun-16 18:10N 37°06' E 012°07'214.3
2017-Jun-16 18:00N 37°05' E 012°10'714.1
2017-Jun-16 17:30N 37°02' E 012°18'713.7
2017-Jun-16 16:59N 36°58' E 012°26'713.9
2017-Jun-16 16:31N 36°55' E 012°33'714.1
2017-Jun-16 16:00N 36°52' E 012°41'714.4
2017-Jun-16 15:31N 36°49' E 012°49'714.7
2017-Jun-16 15:00N 36°46' E 012°58'714.7
2017-Jun-16 14:30N 36°43' E 013°06'1514.6
2017-Jun-16 13:30N 36°37' E 013°23'714.2
2017-Jun-16 13:00N 36°34' E 013°31'714.1
2017-Jun-16 12:31N 36°31' E 013°39'714.0
2017-Jun-16 12:00N 36°28' E 013°47'714.1
2017-Jun-16 11:31N 36°25' E 013°55'714.3
2017-Jun-16 11:00N 36°22' E 014°03'714.3
2017-Jun-16 10:31N 36°19' E 014°11'714.4
2017-Jun-16 10:00N 36°16' E 014°19'714.2
2017-Jun-16 09:30N 36°13' E 014°27'714.2
2017-Jun-16 09:01N 36°10' E 014°35'714.3
2017-Jun-16 08:30N 36°07' E 014°43'714.1
2017-Jun-16 08:00N 36°04' E 014°51'714.1
2017-Jun-16 07:30N 36°01' E 014°59'713.9
2017-Jun-16 07:00N 35°59' E 015°07'713.9
2017-Jun-16 06:30N 35°56' E 015°15'714.0
2017-Jun-16 05:59N 35°54' E 015°23'714.3
2017-Jun-16 05:30N 35°52' E 015°31'714.2
2017-Jun-16 05:00N 35°50' E 015°40'714.1
2017-Jun-16 04:29N 35°48' E 015°48'714.0
2017-Jun-16 04:00N 35°46' E 015°56'  
Track history (hours):
 
Tides and Currents Weather Stations Pressure Air Temp Water Temp Dewpoint Dewpoint Depression Visibility Wind Speed Wind Dir Waves Ship Positions

BBC Congo

Last reported at 2017-Jun-26 03:30 UTC. Time now 2017-Jun-26 03:47 UTC.
Position N 51°21' W 009°57'.

Length 144 m; draft 6.6 m.

Type: Cargo ship. MMSI: 305466000.

Date/timePositionNaut miles runAvg speedWind from/ knotsBaromVisibWave heightAir tempDewpointWater temp
2017-Jun-26 03:30N 51°21' W 009°57'612.8
2017-Jun-26 03:00N 51°25' W 010°05'612.4
2017-Jun-26 02:30N 51°28' W 010°13'612.1
2017-Jun-26 02:00N 51°32' W 010°21'3812.0
2017-Jun-25 22:52N 52°08' W 010°41'513.9
2017-Jun-25 22:30N 52°11' W 010°35'713.8
2017-Jun-25 21:59N 52°15' W 010°25'913.7
2017-Jun-25 21:21N 52°20' W 010°14'613.5
2017-Jun-25 20:53N 52°24' W 010°05'  
2017-Jun-22 13:10N 52°30' W 009°52'314.5
2017-Jun-22 12:56N 52°28' W 009°57'714.6
2017-Jun-22 12:28N 52°24' W 010°06'714.4
2017-Jun-22 11:56N 52°20' W 010°16'814.6
2017-Jun-22 11:22N 52°15' W 010°27'5213.4
2017-Jun-22 07:30N 51°24' W 010°40'714.1
2017-Jun-22 07:00N 51°17' W 010°40'713.0
2017-Jun-22 06:28N 51°10' W 010°39'612.2
2017-Jun-22 06:00N 51°04' W 010°39'61214.1
2017-Jun-20 10:36N 40°53' W 009°50'214.6
2017-Jun-20 10:27N 40°51' W 009°50'4314.8
2017-Jun-20 07:34N 40°08' W 009°50'115.0
2017-Jun-20 07:30N 40°07' W 009°50'815.1
2017-Jun-20 07:00N 39°59' W 009°51'815.1
2017-Jun-20 06:30N 39°52' W 009°51'714.8
2017-Jun-20 06:00N 39°44' W 009°51'814.9
2017-Jun-20 05:30N 39°37' W 009°50'714.6
2017-Jun-20 05:00N 39°30' W 009°51'714.3
2017-Jun-20 04:30N 39°22' W 009°51'714.7
2017-Jun-20 04:00N 39°15' W 009°51'714.6
2017-Jun-20 03:30N 39°08' W 009°51'815.1
2017-Jun-20 03:00N 39°00' W 009°51'714.8
2017-Jun-20 02:30N 38°53' W 009°51'714.4
2017-Jun-20 02:00N 38°46' W 009°51'714.3
2017-Jun-20 01:30N 38°39' W 009°50'714.2
2017-Jun-20 01:00N 38°32' W 009°48'714.3
2017-Jun-20 00:30N 38°25' W 009°46'714.3
2017-Jun-20 00:00N 38°18' W 009°44'714.0
2017-Jun-19 23:31N 38°11' W 009°42'713.7
2017-Jun-19 23:01N 38°04' W 009°40'713.6
2017-Jun-19 22:30N 37°57' W 009°38'713.9
2017-Jun-19 22:01N 37°51' W 009°37'714.0
2017-Jun-19 21:30N 37°44' W 009°35'714.5
2017-Jun-19 21:00N 37°37' W 009°33'714.9
2017-Jun-19 20:31N 37°30' W 009°31'714.8
2017-Jun-19 20:01N 37°22' W 009°29'815.0
2017-Jun-19 19:30N 37°15' W 009°26'815.1
2017-Jun-19 19:00N 37°08' W 009°24'714.9
2017-Jun-19 18:30N 37°00' W 009°22'814.9
2017-Jun-19 18:00N 36°53' W 009°20'1314.6
2017-Jun-19 17:05N 36°44' W 009°07'214.0
2017-Jun-19 16:58N 36°44' W 009°05'613.9
2017-Jun-19 16:30N 36°42' W 008°58'814.8
2017-Jun-19 16:00N 36°39' W 008°49'1114.8
2017-Jun-19 15:17N 36°36' W 008°36'614.3
2017-Jun-19 14:53N 36°34' W 008°30'1314.3
2017-Jun-19 14:00N 36°30' W 008°15'714.1
2017-Jun-19 13:30N 36°27' W 008°06'714.2
2017-Jun-19 13:00N 36°25' W 007°58'715.0
2017-Jun-19 12:30N 36°23' W 007°49'815.3
2017-Jun-19 12:00N 36°20' W 007°40'1415.0
2017-Jun-19 11:04N 36°16' W 007°24'30914.6
2017-Jun-18 13:59N 36°26' W 001°01'715.2
2017-Jun-18 13:30N 36°28' W 000°52'815.2
2017-Jun-18 13:00N 36°29' W 000°43'815.1
2017-Jun-18 12:30N 36°30' W 000°33'2614.9
2017-Jun-18 10:45N 36°35' W 000°01'615.1
2017-Jun-18 10:22N 36°36' E 000°06'615.2
2017-Jun-18 09:59N 36°37' E 000°13'715.1
2017-Jun-18 09:30N 36°38' E 000°22'1014.8
2017-Jun-18 08:48N 36°40' E 000°35'414.7
2017-Jun-18 08:30N 36°40' E 000°40'714.9
2017-Jun-18 08:00N 36°41' E 000°49'815.0
2017-Jun-18 07:27N 36°43' E 000°59'815.1
2017-Jun-18 06:57N 36°45' E 001°09'715.1
2017-Jun-18 06:29N 36°46' E 001°17'1115.1
2017-Jun-18 05:47N 36°48' E 001°30'515.5
2017-Jun-18 05:29N 36°49' E 001°36'815.4
2017-Jun-18 05:00N 36°50' E 001°45'2715.2
2017-Jun-18 03:13N 36°56' E 002°18'315.3
2017-Jun-18 03:00N 36°56' E 002°22'815.3
2017-Jun-18 02:30N 36°57' E 002°32'815.3
2017-Jun-18 02:00N 36°58' E 002°41'815.2
2017-Jun-18 01:30N 36°59' E 002°51'1415.0
2017-Jun-18 00:33N 37°02' E 003°08'214.9
2017-Jun-18 00:23N 37°02' E 003°11'27214.5
2017-Jun-17 05:39N 37°35' E 008°50'314.4
2017-Jun-17 05:27N 37°36' E 008°54'1214.0
2017-Jun-17 04:36N 37°37' E 009°09'413.8
2017-Jun-17 04:19N 37°37' E 009°14'513.9
2017-Jun-17 04:00N 37°37' E 009°20'713.8
2017-Jun-17 03:27N 37°37' E 009°29'813.8
2017-Jun-17 02:53N 37°38' E 009°39'513.8
2017-Jun-17 02:29N 37°38' E 009°46'6413.6
2017-Jun-16 21:48N 37°29' E 011°06'414.5
2017-Jun-16 21:30N 37°27' E 011°11'5015.0
2017-Jun-16 18:10N 37°06' E 012°07'214.3
2017-Jun-16 18:00N 37°05' E 012°10'714.1
2017-Jun-16 17:30N 37°02' E 012°18'713.7
2017-Jun-16 16:59N 36°58' E 012°26'713.9
2017-Jun-16 16:31N 36°55' E 012°33'714.1
2017-Jun-16 16:00N 36°52' E 012°41'714.4
2017-Jun-16 15:31N 36°49' E 012°49'714.7
2017-Jun-16 15:00N 36°46' E 012°58'714.7
2017-Jun-16 14:30N 36°43' E 013°06'1514.6
2017-Jun-16 13:30N 36°37' E 013°23'714.2
2017-Jun-16 13:00N 36°34' E 013°31'714.1
2017-Jun-16 12:31N 36°31' E 013°39'714.0
2017-Jun-16 12:00N 36°28' E 013°47'714.1
2017-Jun-16 11:31N 36°25' E 013°55'714.3
2017-Jun-16 11:00N 36°22' E 014°03'714.3
2017-Jun-16 10:31N 36°19' E 014°11'714.4
2017-Jun-16 10:00N 36°16' E 014°19'714.2
2017-Jun-16 09:30N 36°13' E 014°27'714.2
2017-Jun-16 09:01N 36°10' E 014°35'714.3
2017-Jun-16 08:30N 36°07' E 014°43'714.1
2017-Jun-16 08:00N 36°04' E 014°51'714.1
2017-Jun-16 07:30N 36°01' E 014°59'713.9
2017-Jun-16 07:00N 35°59' E 015°07'713.9
2017-Jun-16 06:30N 35°56' E 015°15'714.0
2017-Jun-16 05:59N 35°54' E 015°23'714.3
2017-Jun-16 05:30N 35°52' E 015°31'714.2
2017-Jun-16 05:00N 35°50' E 015°40'714.1
2017-Jun-16 04:29N 35°48' E 015°48'714.0
2017-Jun-16 04:00N 35°46' E 015°56'  

Dump ship's entire track history